sensor_id;sensor_type;location;lat;lon;timestamp;P1;durP1;ratioP1;P2;durP2;ratioP2
53781;SDS011;39692;53.114;7.060;2022-07-11T00:01:42;4.00;;;1.60;;
53781;SDS011;39692;53.114;7.060;2022-07-11T00:04:08;5.00;;;2.08;;
53781;SDS011;39692;53.114;7.060;2022-07-11T00:06:34;3.65;;;2.00;;
53781;SDS011;39692;53.114;7.060;2022-07-11T00:09:00;3.53;;;1.83;;
53781;SDS011;39692;53.114;7.060;2022-07-11T00:11:25;2.78;;;1.90;;
53781;SDS011;39692;53.114;7.060;2022-07-11T00:13:51;2.95;;;1.65;;
53781;SDS011;39692;53.114;7.060;2022-07-11T00:16:17;3.13;;;1.70;;
53781;SDS011;39692;53.114;7.060;2022-07-11T00:18:43;4.47;;;1.60;;
53781;SDS011;39692;53.114;7.060;2022-07-11T00:21:10;4.60;;;1.77;;
53781;SDS011;39692;53.114;7.060;2022-07-11T00:23:36;3.00;;;1.30;;
53781;SDS011;39692;53.114;7.060;2022-07-11T00:26:02;3.85;;;1.38;;
53781;SDS011;39692;53.114;7.060;2022-07-11T00:28:28;2.63;;;1.40;;
53781;SDS011;39692;53.114;7.060;2022-07-11T00:30:54;3.03;;;1.83;;
53781;SDS011;39692;53.114;7.060;2022-07-11T00:33:20;3.00;;;1.48;;
53781;SDS011;39692;53.114;7.060;2022-07-11T00:35:46;3.70;;;2.08;;
53781;SDS011;39692;53.114;7.060;2022-07-11T00:38:12;4.97;;;1.75;;
53781;SDS011;39692;53.114;7.060;2022-07-11T00:40:38;2.83;;;1.77;;
53781;SDS011;39692;53.114;7.060;2022-07-11T00:43:04;3.28;;;1.80;;
53781;SDS011;39692;53.114;7.060;2022-07-11T00:45:29;2.08;;;1.30;;
53781;SDS011;39692;53.114;7.060;2022-07-11T00:47:55;3.05;;;1.20;;
53781;SDS011;39692;53.114;7.060;2022-07-11T00:50:22;3.60;;;1.67;;
53781;SDS011;39692;53.114;7.060;2022-07-11T00:52:49;3.45;;;1.42;;
53781;SDS011;39692;53.114;7.060;2022-07-11T00:55:17;3.78;;;1.35;;
53781;SDS011;39692;53.114;7.060;2022-07-11T00:57:44;2.63;;;1.40;;
53781;SDS011;39692;53.114;7.060;2022-07-11T01:00:10;2.47;;;1.38;;
53781;SDS011;39692;53.114;7.060;2022-07-11T01:02:37;3.53;;;1.55;;
53781;SDS011;39692;53.114;7.060;2022-07-11T01:05:03;4.03;;;1.85;;
53781;SDS011;39692;53.114;7.060;2022-07-11T01:07:29;3.83;;;1.88;;
53781;SDS011;39692;53.114;7.060;2022-07-11T01:09:55;6.38;;;1.90;;
53781;SDS011;39692;53.114;7.060;2022-07-11T01:12:21;6.05;;;1.90;;
53781;SDS011;39692;53.114;7.060;2022-07-11T01:14:53;4.43;;;1.80;;
53781;SDS011;39692;53.114;7.060;2022-07-11T01:17:20;3.72;;;1.98;;
53781;SDS011;39692;53.114;7.060;2022-07-11T01:19:46;5.00;;;1.90;;
53781;SDS011;39692;53.114;7.060;2022-07-11T01:22:13;4.80;;;1.98;;
53781;SDS011;39692;53.114;7.060;2022-07-11T01:24:40;3.67;;;2.45;;
53781;SDS011;39692;53.114;7.060;2022-07-11T01:27:07;4.40;;;2.10;;
53781;SDS011;39692;53.114;7.060;2022-07-11T01:29:34;3.70;;;2.22;;
53781;SDS011;39692;53.114;7.060;2022-07-11T01:32:00;5.72;;;2.17;;
53781;SDS011;39692;53.114;7.060;2022-07-11T01:34:25;5.07;;;1.95;;
53781;SDS011;39692;53.114;7.060;2022-07-11T01:36:51;6.68;;;2.30;;
53781;SDS011;39692;53.114;7.060;2022-07-11T01:39:17;4.40;;;2.38;;
53781;SDS011;39692;53.114;7.060;2022-07-11T01:41:43;7.47;;;2.47;;
53781;SDS011;39692;53.114;7.060;2022-07-11T01:44:08;4.30;;;2.15;;
53781;SDS011;39692;53.114;7.060;2022-07-11T01:46:34;5.82;;;2.63;;
53781;SDS011;39692;53.114;7.060;2022-07-11T01:49:00;4.47;;;2.53;;
53781;SDS011;39692;53.114;7.060;2022-07-11T01:51:25;5.15;;;2.30;;
53781;SDS011;39692;53.114;7.060;2022-07-11T01:53:52;4.25;;;2.83;;
53781;SDS011;39692;53.114;7.060;2022-07-11T01:56:20;4.72;;;3.10;;
53781;SDS011;39692;53.114;7.060;2022-07-11T01:58:46;5.18;;;3.30;;
53781;SDS011;39692;53.114;7.060;2022-07-11T02:01:12;4.22;;;3.03;;
53781;SDS011;39692;53.114;7.060;2022-07-11T02:03:38;7.50;;;2.95;;
53781;SDS011;39692;53.114;7.060;2022-07-11T02:06:04;4.22;;;3.03;;
53781;SDS011;39692;53.114;7.060;2022-07-11T02:08:30;5.13;;;2.90;;
53781;SDS011;39692;53.114;7.060;2022-07-11T02:10:55;5.18;;;3.05;;
53781;SDS011;39692;53.114;7.060;2022-07-11T02:13:21;4.82;;;2.67;;
53781;SDS011;39692;53.114;7.060;2022-07-11T02:15:48;3.70;;;2.45;;
53781;SDS011;39692;53.114;7.060;2022-07-11T02:18:15;5.97;;;2.40;;
53781;SDS011;39692;53.114;7.060;2022-07-11T02:20:43;4.10;;;2.42;;
53781;SDS011;39692;53.114;7.060;2022-07-11T02:23:11;3.83;;;2.30;;
53781;SDS011;39692;53.114;7.060;2022-07-11T02:25:37;5.00;;;2.75;;
53781;SDS011;39692;53.114;7.060;2022-07-11T02:28:09;4.20;;;2.83;;
53781;SDS011;39692;53.114;7.060;2022-07-11T02:30:35;3.72;;;2.63;;
53781;SDS011;39692;53.114;7.060;2022-07-11T02:33:01;5.43;;;2.90;;
53781;SDS011;39692;53.114;7.060;2022-07-11T02:35:28;5.18;;;2.90;;
53781;SDS011;39692;53.114;7.060;2022-07-11T02:37:53;4.72;;;3.50;;
53781;SDS011;39692;53.114;7.060;2022-07-11T02:40:19;5.80;;;2.65;;
53781;SDS011;39692;53.114;7.060;2022-07-11T02:42:45;5.47;;;2.90;;
53781;SDS011;39692;53.114;7.060;2022-07-11T02:45:11;7.18;;;3.33;;
53781;SDS011;39692;53.114;7.060;2022-07-11T02:47:38;7.55;;;3.45;;
53781;SDS011;39692;53.114;7.060;2022-07-11T02:50:05;7.78;;;3.53;;
53781;SDS011;39692;53.114;7.060;2022-07-11T02:52:33;7.15;;;3.65;;
53781;SDS011;39692;53.114;7.060;2022-07-11T02:54:59;6.32;;;3.60;;
53781;SDS011;39692;53.114;7.060;2022-07-11T02:57:25;6.80;;;3.60;;
53781;SDS011;39692;53.114;7.060;2022-07-11T02:59:51;5.00;;;3.40;;
53781;SDS011;39692;53.114;7.060;2022-07-11T03:02:17;5.35;;;3.67;;
53781;SDS011;39692;53.114;7.060;2022-07-11T03:08:23;7.15;;;4.05;;
53781;SDS011;39692;53.114;7.060;2022-07-11T03:10:49;6.03;;;3.58;;
53781;SDS011;39692;53.114;7.060;2022-07-11T03:13:14;5.35;;;3.88;;
53781;SDS011;39692;53.114;7.060;2022-07-11T03:15:41;5.85;;;4.00;;
53781;SDS011;39692;53.114;7.060;2022-07-11T03:18:07;4.88;;;3.42;;
53781;SDS011;39692;53.114;7.060;2022-07-11T03:20:32;6.35;;;4.03;;
53781;SDS011;39692;53.114;7.060;2022-07-11T03:22:58;4.70;;;3.40;;
53781;SDS011;39692;53.114;7.060;2022-07-11T03:25:24;6.32;;;3.53;;
53781;SDS011;39692;53.114;7.060;2022-07-11T03:27:49;4.50;;;2.85;;
53781;SDS011;39692;53.114;7.060;2022-07-11T03:30:15;6.13;;;3.25;;
53781;SDS011;39692;53.114;7.060;2022-07-11T03:32:42;4.63;;;3.33;;
53781;SDS011;39692;53.114;7.060;2022-07-11T03:35:07;4.50;;;3.00;;
53781;SDS011;39692;53.114;7.060;2022-07-11T03:37:52;3.85;;;2.53;;
53781;SDS011;39692;53.114;7.060;2022-07-11T03:40:17;3.83;;;2.72;;
53781;SDS011;39692;53.114;7.060;2022-07-11T03:42:43;6.32;;;3.55;;
53781;SDS011;39692;53.114;7.060;2022-07-11T03:45:10;4.25;;;2.70;;
53781;SDS011;39692;53.114;7.060;2022-07-11T03:47:35;4.88;;;2.30;;
53781;SDS011;39692;53.114;7.060;2022-07-11T03:50:02;4.78;;;2.80;;
53781;SDS011;39692;53.114;7.060;2022-07-11T03:52:28;4.15;;;2.63;;
53781;SDS011;39692;53.114;7.060;2022-07-11T03:54:53;5.10;;;3.00;;
53781;SDS011;39692;53.114;7.060;2022-07-11T03:57:19;5.68;;;3.10;;
53781;SDS011;39692;53.114;7.060;2022-07-11T03:59:45;4.78;;;3.55;;
53781;SDS011;39692;53.114;7.060;2022-07-11T04:02:10;5.45;;;3.17;;
53781;SDS011;39692;53.114;7.060;2022-07-11T04:04:36;4.13;;;3.10;;
53781;SDS011;39692;53.114;7.060;2022-07-11T04:07:02;5.80;;;3.22;;
53781;SDS011;39692;53.114;7.060;2022-07-11T04:09:28;5.60;;;3.45;;
53781;SDS011;39692;53.114;7.060;2022-07-11T04:11:53;4.35;;;2.78;;
53781;SDS011;39692;53.114;7.060;2022-07-11T04:14:19;4.90;;;3.38;;
53781;SDS011;39692;53.114;7.060;2022-07-11T04:16:45;4.53;;;3.10;;
53781;SDS011;39692;53.114;7.060;2022-07-11T04:19:10;4.57;;;2.90;;
53781;SDS011;39692;53.114;7.060;2022-07-11T04:21:36;4.13;;;2.63;;
53781;SDS011;39692;53.114;7.060;2022-07-11T04:24:02;4.35;;;2.92;;
53781;SDS011;39692;53.114;7.060;2022-07-11T04:26:27;5.95;;;3.00;;
53781;SDS011;39692;53.114;7.060;2022-07-11T04:28:53;5.10;;;2.38;;
53781;SDS011;39692;53.114;7.060;2022-07-11T04:31:19;3.90;;;2.60;;
53781;SDS011;39692;53.114;7.060;2022-07-11T04:33:44;3.47;;;2.28;;
53781;SDS011;39692;53.114;7.060;2022-07-11T04:36:10;5.32;;;2.55;;
53781;SDS011;39692;53.114;7.060;2022-07-11T04:38:36;3.92;;;2.35;;
53781;SDS011;39692;53.114;7.060;2022-07-11T04:41:01;4.95;;;2.70;;
53781;SDS011;39692;53.114;7.060;2022-07-11T04:43:27;5.18;;;2.35;;
53781;SDS011;39692;53.114;7.060;2022-07-11T04:45:53;4.43;;;1.88;;
53781;SDS011;39692;53.114;7.060;2022-07-11T04:48:19;3.72;;;2.00;;
53781;SDS011;39692;53.114;7.060;2022-07-11T04:50:44;3.80;;;1.95;;
53781;SDS011;39692;53.114;7.060;2022-07-11T04:53:10;5.22;;;2.20;;
53781;SDS011;39692;53.114;7.060;2022-07-11T04:55:37;3.50;;;1.70;;
53781;SDS011;39692;53.114;7.060;2022-07-11T04:58:06;3.67;;;1.73;;
53781;SDS011;39692;53.114;7.060;2022-07-11T05:00:33;3.72;;;1.40;;
53781;SDS011;39692;53.114;7.060;2022-07-11T05:03:00;2.40;;;1.13;;
53781;SDS011;39692;53.114;7.060;2022-07-11T05:05:26;2.58;;;1.42;;
53781;SDS011;39692;53.114;7.060;2022-07-11T05:07:52;2.22;;;1.10;;
53781;SDS011;39692;53.114;7.060;2022-07-11T05:10:18;3.70;;;1.52;;
53781;SDS011;39692;53.114;7.060;2022-07-11T05:12:44;2.50;;;0.80;;
53781;SDS011;39692;53.114;7.060;2022-07-11T05:15:10;2.13;;;0.80;;
53781;SDS011;39692;53.114;7.060;2022-07-11T05:17:36;2.17;;;1.00;;
53781;SDS011;39692;53.114;7.060;2022-07-11T05:20:02;2.42;;;0.80;;
53781;SDS011;39692;53.114;7.060;2022-07-11T05:22:28;4.35;;;0.90;;
53781;SDS011;39692;53.114;7.060;2022-07-11T05:24:54;1.48;;;0.60;;
53781;SDS011;39692;53.114;7.060;2022-07-11T05:27:20;3.35;;;0.80;;
53781;SDS011;39692;53.114;7.060;2022-07-11T05:29:45;2.42;;;1.08;;
53781;SDS011;39692;53.114;7.060;2022-07-11T05:32:11;3.17;;;0.63;;
53781;SDS011;39692;53.114;7.060;2022-07-11T05:34:37;1.20;;;0.60;;
53781;SDS011;39692;53.114;7.060;2022-07-11T05:37:03;2.45;;;0.70;;
53781;SDS011;39692;53.114;7.060;2022-07-11T05:39:29;2.53;;;0.70;;
53781;SDS011;39692;53.114;7.060;2022-07-11T05:41:55;1.88;;;0.65;;
53781;SDS011;39692;53.114;7.060;2022-07-11T05:44:20;2.05;;;0.98;;
53781;SDS011;39692;53.114;7.060;2022-07-11T05:46:46;1.45;;;0.60;;
53781;SDS011;39692;53.114;7.060;2022-07-11T05:49:12;2.80;;;0.80;;
53781;SDS011;39692;53.114;7.060;2022-07-11T05:51:40;1.55;;;0.50;;
53781;SDS011;39692;53.114;7.060;2022-07-11T05:54:06;1.75;;;0.70;;
53781;SDS011;39692;53.114;7.060;2022-07-11T05:56:32;1.70;;;0.60;;
53781;SDS011;39692;53.114;7.060;2022-07-11T05:58:58;1.58;;;0.60;;
53781;SDS011;39692;53.114;7.060;2022-07-11T06:01:24;1.52;;;0.75;;
53781;SDS011;39692;53.114;7.060;2022-07-11T06:03:51;1.95;;;0.60;;
53781;SDS011;39692;53.114;7.060;2022-07-11T06:06:17;2.33;;;0.60;;
53781;SDS011;39692;53.114;7.060;2022-07-11T06:08:43;2.78;;;0.50;;
53781;SDS011;39692;53.114;7.060;2022-07-11T06:11:10;2.72;;;0.60;;
53781;SDS011;39692;53.114;7.060;2022-07-11T06:13:40;2.88;;;0.50;;
53781;SDS011;39692;53.114;7.060;2022-07-11T06:16:07;4.15;;;0.63;;
53781;SDS011;39692;53.114;7.060;2022-07-11T06:18:35;3.22;;;0.40;;
53781;SDS011;39692;53.114;7.060;2022-07-11T06:21:01;0.88;;;0.50;;
53781;SDS011;39692;53.114;7.060;2022-07-11T06:23:27;1.25;;;0.40;;
53781;SDS011;39692;53.114;7.060;2022-07-11T06:25:54;0.98;;;0.40;;
53781;SDS011;39692;53.114;7.060;2022-07-11T06:28:20;2.08;;;0.40;;
53781;SDS011;39692;53.114;7.060;2022-07-11T06:30:46;2.60;;;0.40;;
53781;SDS011;39692;53.114;7.060;2022-07-11T06:33:11;2.45;;;0.55;;
53781;SDS011;39692;53.114;7.060;2022-07-11T06:35:37;1.48;;;0.40;;
53781;SDS011;39692;53.114;7.060;2022-07-11T06:38:03;0.60;;;0.20;;
53781;SDS011;39692;53.114;7.060;2022-07-11T06:40:29;2.33;;;0.35;;
53781;SDS011;39692;53.114;7.060;2022-07-11T06:42:54;1.58;;;0.35;;
53781;SDS011;39692;53.114;7.060;2022-07-11T06:45:20;0.90;;;0.38;;
53781;SDS011;39692;53.114;7.060;2022-07-11T06:47:46;3.80;;;0.60;;
53781;SDS011;39692;53.114;7.060;2022-07-11T06:50:11;3.53;;;0.47;;
53781;SDS011;39692;53.114;7.060;2022-07-11T06:52:38;1.77;;;0.45;;
53781;SDS011;39692;53.114;7.060;2022-07-11T06:55:03;1.17;;;0.43;;
53781;SDS011;39692;53.114;7.060;2022-07-11T06:57:29;2.13;;;0.38;;
53781;SDS011;39692;53.114;7.060;2022-07-11T06:59:55;2.28;;;0.35;;
53781;SDS011;39692;53.114;7.060;2022-07-11T07:02:21;3.97;;;0.65;;
53781;SDS011;39692;53.114;7.060;2022-07-11T07:04:51;0.95;;;0.20;;
53781;SDS011;39692;53.114;7.060;2022-07-11T07:07:16;2.90;;;0.45;;
53781;SDS011;39692;53.114;7.060;2022-07-11T07:09:42;1.30;;;0.25;;
53781;SDS011;39692;53.114;7.060;2022-07-11T07:12:17;0.82;;;0.30;;
53781;SDS011;39692;53.114;7.060;2022-07-11T07:14:43;1.23;;;0.30;;
53781;SDS011;39692;53.114;7.060;2022-07-11T07:17:08;2.67;;;0.50;;
53781;SDS011;39692;53.114;7.060;2022-07-11T07:19:34;0.63;;;0.20;;
53781;SDS011;39692;53.114;7.060;2022-07-11T07:21:59;1.65;;;0.30;;
53781;SDS011;39692;53.114;7.060;2022-07-11T07:24:25;0.60;;;0.20;;
53781;SDS011;39692;53.114;7.060;2022-07-11T07:26:51;0.73;;;0.10;;
53781;SDS011;39692;53.114;7.060;2022-07-11T07:29:16;0.93;;;0.20;;
53781;SDS011;39692;53.114;7.060;2022-07-11T07:31:42;0.30;;;0.10;;
53781;SDS011;39692;53.114;7.060;2022-07-11T07:34:08;0.82;;;0.22;;
53781;SDS011;39692;53.114;7.060;2022-07-11T07:36:34;0.70;;;0.20;;
53781;SDS011;39692;53.114;7.060;2022-07-11T07:39:00;0.90;;;0.20;;
53781;SDS011;39692;53.114;7.060;2022-07-11T07:41:26;0.57;;;0.22;;
53781;SDS011;39692;53.114;7.060;2022-07-11T07:43:52;0.68;;;0.22;;
53781;SDS011;39692;53.114;7.060;2022-07-11T07:46:18;0.30;;;0.10;;
53781;SDS011;39692;53.114;7.060;2022-07-11T07:48:44;0.65;;;0.25;;
53781;SDS011;39692;53.114;7.060;2022-07-11T07:51:09;0.63;;;0.20;;
53781;SDS011;39692;53.114;7.060;2022-07-11T07:53:35;1.13;;;0.38;;
53781;SDS011;39692;53.114;7.060;2022-07-11T07:56:02;0.68;;;0.20;;
53781;SDS011;39692;53.114;7.060;2022-07-11T07:58:29;0.82;;;0.30;;
53781;SDS011;39692;53.114;7.060;2022-07-11T08:00:54;0.95;;;0.30;;
53781;SDS011;39692;53.114;7.060;2022-07-11T08:03:38;0.30;;;0.20;;
53781;SDS011;39692;53.114;7.060;2022-07-11T08:06:04;1.27;;;0.40;;
53781;SDS011;39692;53.114;7.060;2022-07-11T08:08:30;1.50;;;0.25;;
53781;SDS011;39692;53.114;7.060;2022-07-11T08:10:55;0.55;;;0.30;;
53781;SDS011;39692;53.114;7.060;2022-07-11T08:13:24;1.52;;;0.40;;
53781;SDS011;39692;53.114;7.060;2022-07-11T08:15:50;0.75;;;0.40;;
53781;SDS011;39692;53.114;7.060;2022-07-11T08:18:16;0.32;;;0.20;;
53781;SDS011;39692;53.114;7.060;2022-07-11T08:20:41;1.05;;;0.38;;
53781;SDS011;39692;53.114;7.060;2022-07-11T08:23:07;1.25;;;0.30;;
53781;SDS011;39692;53.114;7.060;2022-07-11T08:25:33;0.57;;;0.32;;
53781;SDS011;39692;53.114;7.060;2022-07-11T08:27:58;1.05;;;0.40;;
53781;SDS011;39692;53.114;7.060;2022-07-11T08:30:24;0.63;;;0.30;;
53781;SDS011;39692;53.114;7.060;2022-07-11T08:32:50;1.30;;;0.40;;
53781;SDS011;39692;53.114;7.060;2022-07-11T08:35:16;1.23;;;0.40;;
53781;SDS011;39692;53.114;7.060;2022-07-11T08:37:42;1.52;;;0.52;;
53781;SDS011;39692;53.114;7.060;2022-07-11T08:40:08;2.00;;;0.50;;
53781;SDS011;39692;53.114;7.060;2022-07-11T08:42:39;1.08;;;0.32;;
53781;SDS011;39692;53.114;7.060;2022-07-11T08:45:06;1.33;;;0.47;;
53781;SDS011;39692;53.114;7.060;2022-07-11T08:47:35;1.85;;;0.80;;
53781;SDS011;39692;53.114;7.060;2022-07-11T08:50:01;2.22;;;0.60;;
53781;SDS011;39692;53.114;7.060;2022-07-11T08:52:28;1.20;;;0.40;;
53781;SDS011;39692;53.114;7.060;2022-07-11T08:54:54;0.50;;;0.30;;
53781;SDS011;39692;53.114;7.060;2022-07-11T08:57:20;0.63;;;0.30;;
53781;SDS011;39692;53.114;7.060;2022-07-11T08:59:49;1.15;;;0.30;;
53781;SDS011;39692;53.114;7.060;2022-07-11T09:02:20;0.95;;;0.57;;
53781;SDS011;39692;53.114;7.060;2022-07-11T09:04:46;1.88;;;0.40;;
53781;SDS011;39692;53.114;7.060;2022-07-11T09:07:12;2.65;;;0.43;;
53781;SDS011;39692;53.114;7.060;2022-07-11T09:09:38;3.08;;;0.70;;
53781;SDS011;39692;53.114;7.060;2022-07-11T09:12:09;1.02;;;0.55;;
53781;SDS011;39692;53.114;7.060;2022-07-11T09:14:39;1.23;;;0.47;;
53781;SDS011;39692;53.114;7.060;2022-07-11T09:17:10;0.98;;;0.40;;
53781;SDS011;39692;53.114;7.060;2022-07-11T09:19:36;2.05;;;0.40;;
53781;SDS011;39692;53.114;7.060;2022-07-11T09:22:09;1.27;;;0.30;;
53781;SDS011;39692;53.114;7.060;2022-07-11T09:24:56;1.05;;;0.30;;
53781;SDS011;39692;53.114;7.060;2022-07-11T09:27:59;1.42;;;0.40;;
53781;SDS011;39692;53.114;7.060;2022-07-11T09:30:31;1.85;;;0.43;;
53781;SDS011;39692;53.114;7.060;2022-07-11T09:33:01;0.38;;;0.20;;
53781;SDS011;39692;53.114;7.060;2022-07-11T09:37:54;1.85;;;0.35;;
53781;SDS011;39692;53.114;7.060;2022-07-11T09:40:20;1.73;;;0.40;;
53781;SDS011;39692;53.114;7.060;2022-07-11T09:42:54;0.70;;;0.25;;
53781;SDS011;39692;53.114;7.060;2022-07-11T09:45:30;0.85;;;0.30;;
53781;SDS011;39692;53.114;7.060;2022-07-11T09:48:01;0.98;;;0.22;;
53781;SDS011;39692;53.114;7.060;2022-07-11T09:50:33;1.02;;;0.30;;
53781;SDS011;39692;53.114;7.060;2022-07-11T09:55:41;0.40;;;0.30;;
53781;SDS011;39692;53.114;7.060;2022-07-11T09:58:09;0.45;;;0.20;;
53781;SDS011;39692;53.114;7.060;2022-07-11T10:00:37;0.40;;;0.20;;
53781;SDS011;39692;53.114;7.060;2022-07-11T10:03:04;1.20;;;0.30;;
53781;SDS011;39692;53.114;7.060;2022-07-11T10:05:31;1.33;;;0.40;;
53781;SDS011;39692;53.114;7.060;2022-07-11T10:07:57;0.90;;;0.30;;
53781;SDS011;39692;53.114;7.060;2022-07-11T10:10:24;0.70;;;0.40;;
53781;SDS011;39692;53.114;7.060;2022-07-11T10:12:52;0.70;;;0.35;;
53781;SDS011;39692;53.114;7.060;2022-07-11T10:15:28;1.52;;;0.40;;
53781;SDS011;39692;53.114;7.060;2022-07-11T10:23:29;2.70;;;0.40;;
53781;SDS011;39692;53.114;7.060;2022-07-11T10:28:48;1.58;;;0.50;;
53781;SDS011;39692;53.114;7.060;2022-07-11T10:31:30;1.45;;;0.50;;
53781;SDS011;39692;53.114;7.060;2022-07-11T10:41:42;1.65;;;0.47;;
53781;SDS011;39692;53.114;7.060;2022-07-11T10:44:08;1.33;;;0.38;;
53781;SDS011;39692;53.114;7.060;2022-07-11T10:46:34;0.80;;;0.30;;
53781;SDS011;39692;53.114;7.060;2022-07-11T10:59:20;0.70;;;0.40;;
53781;SDS011;39692;53.114;7.060;2022-07-11T11:04:43;1.17;;;0.57;;
53781;SDS011;39692;53.114;7.060;2022-07-11T11:07:29;0.88;;;0.40;;
53781;SDS011;39692;53.114;7.060;2022-07-11T11:10:06;1.17;;;0.35;;
53781;SDS011;39692;53.114;7.060;2022-07-11T11:15:45;1.15;;;0.40;;
53781;SDS011;39692;53.114;7.060;2022-07-11T11:23:25;0.80;;;0.30;;
53781;SDS011;39692;53.114;7.060;2022-07-11T11:26:03;0.63;;;0.30;;
53781;SDS011;39692;53.114;7.060;2022-07-11T11:28:29;0.80;;;0.45;;
53781;SDS011;39692;53.114;7.060;2022-07-11T11:30:55;0.85;;;0.40;;
53781;SDS011;39692;53.114;7.060;2022-07-11T11:33:25;0.80;;;0.47;;
53781;SDS011;39692;53.114;7.060;2022-07-11T11:36:01;1.15;;;0.55;;
53781;SDS011;39692;53.114;7.060;2022-07-11T11:38:36;0.77;;;0.40;;
53781;SDS011;39692;53.114;7.060;2022-07-11T11:41:03;0.82;;;0.40;;
53781;SDS011;39692;53.114;7.060;2022-07-11T11:43:30;0.82;;;0.30;;
53781;SDS011;39692;53.114;7.060;2022-07-11T11:45:57;0.55;;;0.22;;
53781;SDS011;39692;53.114;7.060;2022-07-11T11:48:32;1.05;;;0.50;;
53781;SDS011;39692;53.114;7.060;2022-07-11T11:51:07;0.65;;;0.38;;
53781;SDS011;39692;53.114;7.060;2022-07-11T11:53:37;1.92;;;0.65;;
53781;SDS011;39692;53.114;7.060;2022-07-11T11:56:20;3.92;;;0.47;;
53781;SDS011;39692;53.114;7.060;2022-07-11T11:58:49;0.80;;;0.47;;
53781;SDS011;39692;53.114;7.060;2022-07-11T12:01:25;0.70;;;0.30;;
53781;SDS011;39692;53.114;7.060;2022-07-11T12:03:55;0.60;;;0.40;;
53781;SDS011;39692;53.114;7.060;2022-07-11T12:06:29;1.08;;;0.50;;
53781;SDS011;39692;53.114;7.060;2022-07-11T12:09:00;1.67;;;0.60;;
53781;SDS011;39692;53.114;7.060;2022-07-11T12:11:28;1.50;;;0.57;;
53781;SDS011;39692;53.114;7.060;2022-07-11T12:13:55;1.73;;;0.50;;
53781;SDS011;39692;53.114;7.060;2022-07-11T12:16:21;1.50;;;0.40;;
53781;SDS011;39692;53.114;7.060;2022-07-11T12:19:06;0.70;;;0.50;;
53781;SDS011;39692;53.114;7.060;2022-07-11T12:21:34;1.52;;;0.40;;
53781;SDS011;39692;53.114;7.060;2022-07-11T12:24:02;2.45;;;0.60;;
53781;SDS011;39692;53.114;7.060;2022-07-11T12:26:30;2.13;;;0.40;;
53781;SDS011;39692;53.114;7.060;2022-07-11T12:29:04;2.17;;;0.68;;
53781;SDS011;39692;53.114;7.060;2022-07-11T12:31:49;1.00;;;0.40;;
53781;SDS011;39692;53.114;7.060;2022-07-11T12:40:02;1.27;;;0.50;;
53781;SDS011;39692;53.114;7.060;2022-07-11T12:42:29;1.67;;;0.45;;
53781;SDS011;39692;53.114;7.060;2022-07-11T12:50:15;1.27;;;0.47;;
53781;SDS011;39692;53.114;7.060;2022-07-11T12:52:52;0.77;;;0.50;;
53781;SDS011;39692;53.114;7.060;2022-07-11T12:55:20;1.00;;;0.68;;
53781;SDS011;39692;53.114;7.060;2022-07-11T12:58:05;1.25;;;0.68;;
53781;SDS011;39692;53.114;7.060;2022-07-11T13:00:57;0.85;;;0.60;;
53781;SDS011;39692;53.114;7.060;2022-07-11T13:03:33;1.67;;;0.70;;
53781;SDS011;39692;53.114;7.060;2022-07-11T13:06:01;2.05;;;0.75;;
53781;SDS011;39692;53.114;7.060;2022-07-11T13:08:32;1.00;;;0.70;;
53781;SDS011;39692;53.114;7.060;2022-07-11T13:11:17;1.25;;;0.50;;
53781;SDS011;39692;53.114;7.060;2022-07-11T13:13:49;1.40;;;0.60;;
53781;SDS011;39692;53.114;7.060;2022-07-11T13:16:16;1.35;;;0.80;;
53781;SDS011;39692;53.114;7.060;2022-07-11T13:18:42;2.85;;;0.80;;
53781;SDS011;39692;53.114;7.060;2022-07-11T13:21:08;1.50;;;0.90;;
53781;SDS011;39692;53.114;7.060;2022-07-11T13:23:35;2.15;;;0.70;;
53781;SDS011;39692;53.114;7.060;2022-07-11T13:26:02;2.95;;;0.93;;
53781;SDS011;39692;53.114;7.060;2022-07-11T13:28:29;3.78;;;1.17;;
53781;SDS011;39692;53.114;7.060;2022-07-11T13:30:54;2.92;;;1.30;;
53781;SDS011;39692;53.114;7.060;2022-07-11T13:33:20;2.50;;;1.10;;
53781;SDS011;39692;53.114;7.060;2022-07-11T13:35:47;3.13;;;1.42;;
53781;SDS011;39692;53.114;7.060;2022-07-11T13:38:14;2.55;;;1.30;;
53781;SDS011;39692;53.114;7.060;2022-07-11T13:40:40;3.40;;;1.30;;
53781;SDS011;39692;53.114;7.060;2022-07-11T13:43:07;2.13;;;1.20;;
53781;SDS011;39692;53.114;7.060;2022-07-11T13:45:33;2.40;;;1.30;;
53781;SDS011;39692;53.114;7.060;2022-07-11T13:47:59;2.88;;;1.38;;
53781;SDS011;39692;53.114;7.060;2022-07-11T13:50:26;2.80;;;1.30;;
53781;SDS011;39692;53.114;7.060;2022-07-11T13:52:52;2.42;;;1.25;;
53781;SDS011;39692;53.114;7.060;2022-07-11T13:55:19;4.88;;;1.50;;
53781;SDS011;39692;53.114;7.060;2022-07-11T13:57:48;2.10;;;0.80;;
53781;SDS011;39692;53.114;7.060;2022-07-11T14:00:17;2.65;;;0.90;;
53781;SDS011;39692;53.114;7.060;2022-07-11T14:02:43;2.67;;;0.80;;
53781;SDS011;39692;53.114;7.060;2022-07-11T14:05:09;1.35;;;0.90;;
53781;SDS011;39692;53.114;7.060;2022-07-11T14:07:35;1.63;;;0.80;;
53781;SDS011;39692;53.114;7.060;2022-07-11T14:10:01;1.65;;;0.60;;
53781;SDS011;39692;53.114;7.060;2022-07-11T14:12:28;2.78;;;0.77;;
53781;SDS011;39692;53.114;7.060;2022-07-11T14:14:54;3.58;;;0.82;;
53781;SDS011;39692;53.114;7.060;2022-07-11T14:17:20;0.88;;;0.60;;
53781;SDS011;39692;53.114;7.060;2022-07-11T14:19:46;1.70;;;0.73;;
53781;SDS011;39692;53.114;7.060;2022-07-11T14:22:12;2.05;;;1.05;;
53781;SDS011;39692;53.114;7.060;2022-07-11T14:24:37;1.38;;;0.70;;
53781;SDS011;39692;53.114;7.060;2022-07-11T14:27:03;1.75;;;0.73;;
53781;SDS011;39692;53.114;7.060;2022-07-11T14:29:29;1.48;;;0.70;;
53781;SDS011;39692;53.114;7.060;2022-07-11T14:31:56;2.60;;;0.70;;
53781;SDS011;39692;53.114;7.060;2022-07-11T14:34:23;1.48;;;0.60;;
53781;SDS011;39692;53.114;7.060;2022-07-11T14:36:49;1.45;;;1.00;;
53781;SDS011;39692;53.114;7.060;2022-07-11T14:39:15;1.75;;;1.00;;
53781;SDS011;39692;53.114;7.060;2022-07-11T14:41:41;1.55;;;1.05;;
53781;SDS011;39692;53.114;7.060;2022-07-11T14:44:09;2.38;;;1.08;;
53781;SDS011;39692;53.114;7.060;2022-07-11T14:46:35;2.03;;;1.40;;
53781;SDS011;39692;53.114;7.060;2022-07-11T14:49:01;2.47;;;1.10;;
53781;SDS011;39692;53.114;7.060;2022-07-11T14:51:29;2.17;;;1.50;;
53781;SDS011;39692;53.114;7.060;2022-07-11T14:53:56;1.90;;;0.90;;
53781;SDS011;39692;53.114;7.060;2022-07-11T14:56:21;2.15;;;1.00;;
53781;SDS011;39692;53.114;7.060;2022-07-11T14:58:47;1.85;;;0.60;;
53781;SDS011;39692;53.114;7.060;2022-07-11T15:01:13;0.77;;;0.40;;
53781;SDS011;39692;53.114;7.060;2022-07-11T15:03:38;1.88;;;0.60;;
53781;SDS011;39692;53.114;7.060;2022-07-11T15:06:08;1.08;;;0.70;;
53781;SDS011;39692;53.114;7.060;2022-07-11T15:08:35;2.22;;;0.50;;
53781;SDS011;39692;53.114;7.060;2022-07-11T15:11:19;1.10;;;0.40;;
53781;SDS011;39692;53.114;7.060;2022-07-11T15:14:04;2.28;;;0.70;;
53781;SDS011;39692;53.114;7.060;2022-07-11T15:16:30;1.92;;;0.60;;
53781;SDS011;39692;53.114;7.060;2022-07-11T15:18:59;1.73;;;0.75;;
53781;SDS011;39692;53.114;7.060;2022-07-11T15:21:26;1.20;;;0.63;;
53781;SDS011;39692;53.114;7.060;2022-07-11T15:23:52;1.10;;;0.50;;
53781;SDS011;39692;53.114;7.060;2022-07-11T15:26:18;1.88;;;0.60;;
53781;SDS011;39692;53.114;7.060;2022-07-11T15:28:44;1.27;;;0.57;;
53781;SDS011;39692;53.114;7.060;2022-07-11T15:31:11;2.00;;;0.40;;
53781;SDS011;39692;53.114;7.060;2022-07-11T15:33:40;1.88;;;0.60;;
53781;SDS011;39692;53.114;7.060;2022-07-11T15:36:11;1.35;;;0.70;;
53781;SDS011;39692;53.114;7.060;2022-07-11T15:38:37;0.68;;;0.45;;
53781;SDS011;39692;53.114;7.060;2022-07-11T15:41:02;0.90;;;0.43;;
53781;SDS011;39692;53.114;7.060;2022-07-11T15:43:32;0.80;;;0.40;;
53781;SDS011;39692;53.114;7.060;2022-07-11T15:45:58;0.80;;;0.40;;
53781;SDS011;39692;53.114;7.060;2022-07-11T15:48:25;1.80;;;0.73;;